Página principal
METAR-TAF:

METAR-TAF

Aeroportos :

Aeroporto de Palma de Maiorca-Son Sant Joan

Palma de Maiorca, Espanha

latitude: 39-33N, longitude: 002-44E, altura: 4 m

Observação actual do tempo

O boletim foi feito há 44 minutos, às 17:00 UTC
Vento 8 kt de es-nordeste
Temperatura 22°C
Humidade 88%
Pressão 1020 hPa
Visibilidade 10 km ou mais
Poucas nuvensa uma altura de 3000 ft

METAR: LEPA 201700Z 07008KT 9999 FEW030 22/20 Q1020 NOSIG

Hora: 19:44 (17:44 UTC)

Previsão

O boletim foi feito há 44 minutos, às 17:00 UTC
Previsão válida de 20 às 18 UTC a 21 às 18 UTC
Vento 8 kt de nordeste
Visibilidade 10 km ou mais
Nuvens dispersasa uma altura de 3000 ft
Probabilidade 30% :
Temporariamente
de 20 às 21 UTC a 21 às 06 UTC
Visibilidade: 3000 m
Nuvens fragmentadasa uma altura de 1500 ft
neblina

TAF: LEPA 201700Z 2018/2118 05008KT 9999 SCT030 TX26/2112Z TN15/2106Z PROB30 TEMPO 2021/2106 3000 BR BKN015

Observações e previsões do tempo de mais de 4000 aeroportos (mensagens METAR e TAF).

As estações disponíveis são os pontos amarelos e vermelhos sobre o mapa.

Mova o rato sobre o mapa para ver o nome da estação.

Depois clique no ponto para visualizar as observações e previsões meteorológicas.

Para alterar o mapa : clique nos botões verdes com uma cruz preta para aumentar o zoom; no botão verde com uma pitada de zoom; ou nas setas verdes para mapas adjacentes.


METAR-TAF: